createdAt,value
2023-05-25T00:00:00.681Z,102072.47
2023-05-25T00:02:47.443Z,102079.69
2023-05-25T00:05:35.117Z,102067.69
2023-05-25T00:08:21.616Z,102063.53
2023-05-25T00:11:07.608Z,102069.19
2023-05-25T00:13:54.263Z,102068.53
2023-05-25T00:16:40.632Z,102073.13
2023-05-25T00:19:26.898Z,102073.41
2023-05-25T00:22:14.320Z,102069.91
2023-05-25T00:25:00.641Z,102072.75
2023-05-25T00:27:46.654Z,102069.06
2023-05-25T00:30:32.755Z,102071.59
2023-05-25T00:33:18.909Z,102066.28
2023-05-25T00:36:05.383Z,102075.09
2023-05-25T00:38:52.645Z,102068.59
2023-05-25T00:41:41.464Z,102066.59
2023-05-25T00:44:28.722Z,102079.09
2023-05-25T00:47:15.076Z,102073.06
2023-05-25T00:50:02.354Z,102069.69
2023-05-25T00:52:49.056Z,102060.78
2023-05-25T00:55:38.140Z,102062.59
2023-05-25T00:58:28.460Z,102063.84
2023-05-25T01:01:16.746Z,102061.38
2023-05-25T01:04:04.739Z,102066.28
2023-05-25T01:06:52.972Z,102068.81
2023-05-25T01:09:40.814Z,102059.78
2023-05-25T01:12:30.285Z,102076.56
2023-05-25T01:15:16.469Z,102067.22
2023-05-25T01:18:03.725Z,102065.44
2023-05-25T01:20:58.481Z,102071.41
2023-05-25T01:23:48.443Z,102059.53
2023-05-25T01:26:39.266Z,102062.22
2023-05-25T01:29:27.341Z,102061.53
2023-05-25T01:32:14.666Z,102057.63
2023-05-25T01:35:01.730Z,102055.09
2023-05-25T01:37:50.552Z,102054.72
2023-05-25T01:40:36.471Z,102061.38
2023-05-25T01:43:24.847Z,102063.69
2023-05-25T01:46:16.832Z,102067.97
2023-05-25T01:49:10.068Z,102065.16
2023-05-25T01:52:01.986Z,102069.59
2023-05-25T01:54:53.436Z,102074.47
2023-05-25T01:57:42.610Z,102069.03
2023-05-25T02:00:31.410Z,102073.31
2023-05-25T02:03:17.913Z,102072.19
2023-05-25T02:06:04.362Z,102069.69
2023-05-25T02:08:52.300Z,102072.50
2023-05-25T02:11:39.605Z,102080.56
2023-05-25T02:14:26.101Z,102072.56
2023-05-25T02:17:14.170Z,102071.44
2023-05-25T02:20:00.560Z,102066.31
2023-05-25T02:22:47.000Z,102066.50
2023-05-25T02:25:33.007Z,102065.09
2023-05-25T02:28:20.714Z,102077.91
2023-05-25T02:31:08.406Z,102067.28
2023-05-25T02:33:54.488Z,102063.59
2023-05-25T02:36:43.378Z,102062.94
2023-05-25T02:39:29.596Z,102065.28
2023-05-25T02:42:17.973Z,102067.50
2023-05-25T02:45:06.857Z,102075.69
2023-05-25T02:47:54.395Z,102071.19
2023-05-25T02:50:42.253Z,102075.19
2023-05-25T02:53:32.257Z,102085.50
2023-05-25T02:56:21.605Z,102077.47
2023-05-25T02:59:07.960Z,102084.91
2023-05-25T03:01:55.398Z,102083.22
2023-05-25T03:04:42.148Z,102084.38
2023-05-25T03:07:28.587Z,102088.56
2023-05-25T03:10:14.973Z,102087.31
2023-05-25T03:13:01.559Z,102089.16
2023-05-25T03:15:47.904Z,102095.63
2023-05-25T03:18:36.766Z,102100.56
2023-05-25T03:21:23.713Z,102095.34
2023-05-25T03:24:10.042Z,102096.34
2023-05-25T03:26:57.052Z,102091.53
2023-05-25T03:29:43.515Z,102086.31
2023-05-25T03:32:29.750Z,102093.97
2023-05-25T03:35:17.652Z,102094.81
2023-05-25T03:38:04.085Z,102103.59
2023-05-25T03:40:50.021Z,102099.00
2023-05-25T03:43:36.063Z,102106.59
2023-05-25T03:46:24.071Z,102100.09
2023-05-25T03:49:13.856Z,102112.81
2023-05-25T03:52:01.523Z,102112.38
2023-05-25T03:54:47.697Z,102107.50
2023-05-25T03:57:33.969Z,102110.81
2023-05-25T04:00:20.768Z,102114.22
2023-05-25T04:03:10.913Z,102121.13
2023-05-25T04:05:58.931Z,102118.22
2023-05-25T04:08:47.875Z,102114.53
2023-05-25T04:11:33.849Z,102123.31
2023-05-25T04:14:21.060Z,102120.22
2023-05-25T04:17:07.848Z,102122.53
2023-05-25T04:19:53.985Z,102126.53
2023-05-25T04:22:40.103Z,102125.22
2023-05-25T04:25:29.691Z,102120.66
2023-05-25T04:28:17.669Z,102127.56
2023-05-25T04:31:09.622Z,102127.50
2023-05-25T04:34:25.390Z,102131.09
2023-05-25T04:37:21.555Z,102132.56
2023-05-25T04:40:09.750Z,102135.56
2023-05-25T04:42:57.604Z,102138.22
2023-05-25T04:45:45.964Z,102145.22
2023-05-25T04:48:34.282Z,102136.16
2023-05-25T04:51:20.613Z,102138.22
2023-05-25T04:54:07.058Z,102142.66
2023-05-25T04:56:53.197Z,102146.38
2023-05-25T04:59:41.869Z,102145.25
2023-05-25T05:02:27.718Z,102154.47
2023-05-25T05:05:14.219Z,102151.66
2023-05-25T05:08:01.240Z,102156.38
2023-05-25T05:10:47.767Z,102152.25
2023-05-25T05:13:34.339Z,102156.19
2023-05-25T05:16:22.451Z,102163.94
2023-05-25T05:19:08.968Z,102165.50
2023-05-25T05:21:55.389Z,102174.88
2023-05-25T05:24:44.068Z,102163.63
2023-05-25T05:27:33.051Z,102176.53
2023-05-25T05:30:24.334Z,102176.78
2023-05-25T05:33:12.148Z,102179.69
2023-05-25T05:36:04.808Z,102189.78
2023-05-25T05:38:51.357Z,102190.09
2023-05-25T05:41:37.319Z,102190.59
2023-05-25T05:44:27.896Z,102200.91
2023-05-25T05:47:15.515Z,102205.91
2023-05-25T05:50:03.439Z,102200.56
2023-05-25T05:52:50.004Z,102215.41
2023-05-25T05:55:36.844Z,102216.84
2023-05-25T05:58:23.175Z,102218.34
2023-05-25T06:01:09.302Z,102220.75
2023-05-25T06:03:56.097Z,102225.25
2023-05-25T06:06:45.293Z,102219.56
2023-05-25T06:09:31.620Z,102219.06
2023-05-25T06:12:19.257Z,102220.78
2023-05-25T06:15:06.556Z,102221.47
2023-05-25T06:17:55.376Z,102227.19
2023-05-25T06:20:41.611Z,102228.22
2023-05-25T06:23:29.221Z,102218.94
2023-05-25T06:26:15.430Z,102228.56
2023-05-25T06:29:01.821Z,102223.22
2023-05-25T06:31:48.014Z,102219.16
2023-05-25T06:34:37.288Z,102229.88
2023-05-25T06:37:24.779Z,102233.59
2023-05-25T06:40:13.171Z,102226.56
2023-05-25T06:42:59.402Z,102227.75
2023-05-25T06:46:03.873Z,102232.13
2023-05-25T06:48:50.840Z,102230.25
2023-05-25T06:51:37.267Z,102236.34
2023-05-25T06:54:23.283Z,102229.75
2023-05-25T06:57:10.772Z,102234.28
2023-05-25T06:59:56.974Z,102239.34
2023-05-25T07:02:43.086Z,102243.72
2023-05-25T07:05:29.601Z,102247.38
2023-05-25T07:08:16.077Z,102253.44
2023-05-25T07:11:02.333Z,102252.72
2023-05-25T07:13:49.607Z,102247.00
2023-05-25T07:16:35.880Z,102246.81
2023-05-25T07:19:22.070Z,102251.22
2023-05-25T07:22:08.196Z,102257.66
2023-05-25T07:24:54.324Z,102249.97
2023-05-25T07:27:42.646Z,102255.06
2023-05-25T07:30:30.563Z,102248.38
2023-05-25T07:33:16.593Z,102252.19
2023-05-25T07:36:03.033Z,102255.94
2023-05-25T07:38:49.231Z,102256.50
2023-05-25T07:41:36.063Z,102249.97
2023-05-25T07:44:22.260Z,102253.22
2023-05-25T07:47:09.720Z,102247.44
2023-05-25T07:49:55.809Z,102257.78
2023-05-25T07:52:42.249Z,102257.47
2023-05-25T07:55:28.692Z,102256.31
2023-05-25T07:58:14.686Z,102256.50
2023-05-25T08:01:00.833Z,102255.06
2023-05-25T08:03:50.007Z,102261.31
2023-05-25T08:06:36.554Z,102259.25
2023-05-25T08:09:23.075Z,102263.19
2023-05-25T08:12:30.701Z,102265.44
2023-05-25T08:15:15.168Z,102260.97
2023-05-25T08:18:03.658Z,102266.56
2023-05-25T08:20:51.238Z,102268.44
2023-05-25T08:23:42.490Z,102273.28
2023-05-25T08:26:37.794Z,102278.31
2023-05-25T08:29:27.966Z,102273.84
2023-05-25T08:32:13.900Z,102275.78
2023-05-25T08:34:59.806Z,102285.50
2023-05-25T08:37:46.983Z,102285.00
2023-05-25T08:40:33.563Z,102277.03
2023-05-25T08:43:19.685Z,102282.63
2023-05-25T08:46:06.749Z,102280.19
2023-05-25T08:48:54.852Z,102292.06
2023-05-25T08:51:44.360Z,102288.69
2023-05-25T08:54:35.330Z,102293.50
2023-05-25T08:57:21.987Z,102292.22
2023-05-25T09:00:10.823Z,102299.88
2023-05-25T09:03:01.188Z,102298.50
2023-05-25T09:05:48.324Z,102298.31
2023-05-25T09:08:35.354Z,102291.16
2023-05-25T09:11:35.970Z,102289.78
2023-05-25T09:14:24.940Z,102284.91
2023-05-25T09:17:11.102Z,102291.16
2023-05-25T09:19:57.610Z,102294.03
2023-05-25T09:22:45.221Z,102295.84
2023-05-25T09:25:31.880Z,102290.38
2023-05-25T09:31:11.096Z,102298.72
2023-05-25T09:34:00.189Z,102304.25
2023-05-25T09:36:47.875Z,102300.03
2023-05-25T09:39:34.587Z,102305.06
2023-05-25T09:42:21.546Z,102302.72
2023-05-25T09:45:10.079Z,102301.00
2023-05-25T09:47:56.833Z,102305.41
2023-05-25T09:50:43.974Z,102298.06
2023-05-25T09:53:32.658Z,102296.16
2023-05-25T09:56:19.092Z,102304.03
2023-05-25T09:59:05.595Z,102300.19
2023-05-25T10:01:53.929Z,102303.00
2023-05-25T10:04:41.215Z,102303.41
2023-05-25T10:07:27.927Z,102313.09
2023-05-25T10:10:16.595Z,102314.28
2023-05-25T10:13:02.991Z,102313.13
2023-05-25T10:15:50.131Z,102320.03
2023-05-25T10:18:41.439Z,102310.19
2023-05-25T10:21:27.947Z,102310.84
2023-05-25T10:24:19.306Z,102322.31
2023-05-25T10:27:18.473Z,102320.88
2023-05-25T10:30:15.256Z,102325.66
2023-05-25T10:33:03.603Z,102313.22
2023-05-25T10:36:02.943Z,102322.38
2023-05-25T10:38:56.628Z,102325.06
2023-05-25T10:41:43.025Z,102322.00
2023-05-25T10:44:30.074Z,102321.09
2023-05-25T10:47:17.432Z,102320.97
2023-05-25T10:50:04.343Z,102318.34
2023-05-25T10:53:01.264Z,102317.16
2023-05-25T10:55:50.402Z,102314.69
2023-05-25T10:58:37.494Z,102311.13
2023-05-25T11:01:23.686Z,102312.22
2023-05-25T11:04:17.126Z,102309.44
2023-05-25T11:07:14.285Z,102317.22
2023-05-25T11:10:01.886Z,102316.81
2023-05-25T11:12:47.777Z,102319.78
2023-05-25T11:15:33.788Z,102322.53
2023-05-25T11:18:19.853Z,102317.91
2023-05-25T11:21:18.626Z,102314.53
2023-05-25T11:24:12.740Z,102309.94
2023-05-25T11:27:01.477Z,102309.09
2023-05-25T11:29:51.211Z,102307.66
2023-05-25T11:32:41.015Z,102302.63
2023-05-25T11:35:28.795Z,102307.88
2023-05-25T11:38:15.908Z,102307.88
2023-05-25T11:41:04.524Z,102297.38
2023-05-25T11:43:53.398Z,102301.56
2023-05-25T11:46:39.566Z,102296.75
2023-05-25T11:49:26.466Z,102295.06
2023-05-25T11:52:13.524Z,102291.50
2023-05-25T11:54:59.928Z,102290.88
2023-05-25T11:57:46.301Z,102289.38
2023-05-25T12:00:34.132Z,102288.16
2023-05-25T12:03:31.390Z,102284.81
2023-05-25T12:06:25.409Z,102286.03
2023-05-25T12:09:12.848Z,102278.91
2023-05-25T12:11:59.706Z,102273.81
2023-05-25T12:14:49.287Z,102269.72
2023-05-25T12:17:36.667Z,102270.25
2023-05-25T12:20:23.114Z,102266.28
2023-05-25T12:23:09.541Z,102260.00
2023-05-25T12:26:09.545Z,102261.25
2023-05-25T12:29:00.138Z,102252.09
2023-05-25T12:31:46.657Z,102253.59
2023-05-25T12:34:34.972Z,102248.31
2023-05-25T12:37:22.224Z,102248.56
2023-05-25T12:40:18.306Z,102246.34
2023-05-25T12:43:05.080Z,102243.03
2023-05-25T12:45:51.695Z,102245.78
2023-05-25T12:48:37.815Z,102239.41
2023-05-25T12:51:25.825Z,102238.41
2023-05-25T12:54:11.715Z,102237.50
2023-05-25T12:56:57.729Z,102236.19
2023-05-25T12:59:45.115Z,102231.00
2023-05-25T13:02:31.284Z,102233.84
2023-05-25T13:05:21.958Z,102241.84
2023-05-25T13:08:09.310Z,102239.63
2023-05-25T13:10:57.136Z,102240.47
2023-05-25T13:13:44.867Z,102235.72
2023-05-25T13:16:33.343Z,102244.41
2023-05-25T13:19:20.783Z,102234.88
2023-05-25T13:22:07.423Z,102231.88
2023-05-25T13:24:55.202Z,102226.97
2023-05-25T13:27:44.892Z,102233.69
2023-05-25T13:30:31.134Z,102228.38
2023-05-25T13:33:17.406Z,102226.63
2023-05-25T13:36:08.889Z,102217.75
2023-05-25T13:38:55.093Z,102214.41
2023-05-25T13:41:42.770Z,102218.44
2023-05-25T13:44:29.079Z,102221.31
2023-05-25T13:47:15.220Z,102209.63
2023-05-25T13:50:01.356Z,102204.16
2023-05-25T13:52:47.388Z,102199.41
2023-05-25T13:55:34.438Z,102208.84
2023-05-25T13:58:24.560Z,102207.34
2023-05-25T14:01:10.645Z,102206.69
2023-05-25T14:03:57.851Z,102197.66
2023-05-25T14:06:44.080Z,102198.56
2023-05-25T14:09:30.367Z,102203.16
2023-05-25T14:12:16.330Z,102198.78
2023-05-25T14:15:04.052Z,102192.44
2023-05-25T14:17:50.693Z,102194.09
2023-05-25T14:20:37.173Z,102188.16
2023-05-25T14:23:23.960Z,102198.06
2023-05-25T14:26:12.655Z,102194.31
2023-05-25T14:28:58.983Z,102193.09
2023-05-25T14:31:47.016Z,102189.47
2023-05-25T14:34:33.239Z,102194.63
2023-05-25T14:37:19.189Z,102193.88
2023-05-25T14:40:06.115Z,102192.00
2023-05-25T14:42:52.038Z,102188.38
2023-05-25T14:45:38.365Z,102184.44
2023-05-25T14:48:26.109Z,102185.03
2023-05-25T14:51:12.291Z,102185.97
2023-05-25T14:54:00.394Z,102189.19
2023-05-25T14:56:46.809Z,102183.47
2023-05-25T14:59:33.402Z,102188.22
2023-05-25T15:02:19.989Z,102186.28
2023-05-25T15:05:08.904Z,102186.09
2023-05-25T15:07:54.983Z,102184.97
2023-05-25T15:10:41.323Z,102187.84
2023-05-25T15:13:27.474Z,102191.09
2023-05-25T15:16:13.995Z,102185.72
2023-05-25T15:19:00.459Z,102184.28
2023-05-25T15:21:48.428Z,102174.91
2023-05-25T15:24:34.247Z,102177.44
2023-05-25T15:27:20.406Z,102171.72
2023-05-25T15:30:07.897Z,102181.22
2023-05-25T15:32:53.751Z,102170.81
2023-05-25T15:35:40.549Z,102177.63
2023-05-25T15:38:28.175Z,102171.31
2023-05-25T15:41:15.924Z,102167.59
2023-05-25T15:44:01.828Z,102163.94
2023-05-25T15:46:48.074Z,102168.56
2023-05-25T15:49:36.718Z,102160.09
2023-05-25T15:52:22.961Z,102160.59
2023-05-25T15:55:10.990Z,102151.25
2023-05-25T15:57:57.035Z,102157.78
2023-05-25T16:00:42.975Z,102165.69
2023-05-25T16:03:29.705Z,102163.66
2023-05-25T16:06:16.252Z,102158.75
2023-05-25T16:09:02.268Z,102160.94
2023-05-25T16:11:49.865Z,102167.28
2023-05-25T16:14:35.839Z,102165.78
2023-05-25T16:17:22.186Z,102167.03
2023-05-25T16:20:10.164Z,102165.19
2023-05-25T16:22:56.257Z,102162.22
2023-05-25T16:25:42.177Z,102161.78
2023-05-25T16:28:30.174Z,102158.44
2023-05-25T16:31:17.359Z,102160.16
2023-05-25T16:34:04.291Z,102161.28
2023-05-25T16:36:50.270Z,102157.41
2023-05-25T16:39:36.466Z,102160.59
2023-05-25T16:42:24.887Z,102155.47
2023-05-25T16:45:12.577Z,102152.81
2023-05-25T16:47:58.404Z,102148.66
2023-05-25T16:50:44.860Z,102151.28
2023-05-25T16:53:31.103Z,102145.75
2023-05-25T16:56:18.091Z,102152.94
2023-05-25T16:59:03.994Z,102141.59
2023-05-25T17:01:52.034Z,102150.09
2023-05-25T17:04:38.378Z,102158.53
2023-05-25T17:07:24.695Z,102156.03
2023-05-25T17:10:11.791Z,102147.09
2023-05-25T17:12:58.196Z,102155.72
2023-05-25T17:15:45.813Z,102153.19
2023-05-25T17:18:33.450Z,102154.78
2023-05-25T17:21:19.707Z,102157.59
2023-05-25T17:24:06.821Z,102161.38
2023-05-25T17:26:52.804Z,102161.25
2023-05-25T17:29:39.055Z,102164.59
2023-05-25T17:32:24.996Z,102153.75
2023-05-25T17:35:12.745Z,102158.81
2023-05-25T17:37:59.191Z,102154.88
2023-05-25T17:40:45.060Z,102159.72
2023-05-25T17:43:31.372Z,102162.22
2023-05-25T17:46:17.544Z,102163.09
2023-05-25T17:49:04.411Z,102168.53
2023-05-25T17:51:52.046Z,102172.09
2023-05-25T17:54:38.084Z,102176.88
2023-05-25T17:57:23.998Z,102177.72
2023-05-25T18:00:11.006Z,102175.00
2023-05-25T18:02:59.974Z,102176.28
2023-05-25T18:05:46.919Z,102179.00
2023-05-25T18:08:34.629Z,102174.78
2023-05-25T18:11:21.323Z,102177.09
2023-05-25T18:14:07.772Z,102182.34
2023-05-25T18:16:54.170Z,102180.22
2023-05-25T18:19:40.531Z,102181.84
2023-05-25T18:22:26.784Z,102185.53
2023-05-25T18:25:14.390Z,102182.97
2023-05-25T18:28:01.184Z,102191.78
2023-05-25T18:30:47.091Z,102185.50
2023-05-25T18:33:33.590Z,102186.75
2023-05-25T18:36:19.618Z,102180.47
2023-05-25T18:39:05.588Z,102186.72
2023-05-25T18:41:52.852Z,102196.28
2023-05-25T18:44:39.025Z,102200.59
2023-05-25T18:47:25.239Z,102198.25
2023-05-25T18:50:12.317Z,102194.88
2023-05-25T18:52:59.485Z,102199.38
2023-05-25T18:55:45.901Z,102203.72
2023-05-25T18:58:33.781Z,102205.91
2023-05-25T19:01:20.196Z,102202.53
2023-05-25T19:04:06.340Z,102214.56
2023-05-25T19:06:52.626Z,102212.69
2023-05-25T19:09:38.489Z,102212.84
2023-05-25T19:12:24.395Z,102209.81
2023-05-25T19:15:13.251Z,102216.00
2023-05-25T19:17:59.909Z,102226.31
2023-05-25T19:20:46.297Z,102229.38
2023-05-25T19:23:32.566Z,102226.78
2023-05-25T19:26:18.928Z,102232.31
2023-05-25T19:29:04.953Z,102236.91
2023-05-25T19:31:52.556Z,102234.28
2023-05-25T19:34:38.756Z,102237.06
2023-05-25T19:37:24.617Z,102240.31
2023-05-25T19:40:12.477Z,102244.63
2023-05-25T19:42:58.398Z,102251.63
2023-05-25T19:45:45.330Z,102253.03
2023-05-25T19:48:33.237Z,102252.22
2023-05-25T19:51:19.373Z,102246.03
2023-05-25T19:54:05.176Z,102248.84
2023-05-25T19:56:51.124Z,102252.59
2023-05-25T19:59:37.591Z,102256.13
2023-05-25T20:02:23.851Z,102253.97
2023-05-25T20:05:11.807Z,102257.03
2023-05-25T20:07:58.001Z,102261.56
2023-05-25T20:10:44.979Z,102257.34
2023-05-25T20:13:31.566Z,102266.00
2023-05-25T20:16:17.779Z,102261.72
2023-05-25T20:19:07.390Z,102264.94
2023-05-25T20:21:54.871Z,102267.00
2023-05-25T20:24:41.068Z,102275.41
2023-05-25T20:27:27.556Z,102269.44
2023-05-25T20:30:15.670Z,102277.72
2023-05-25T20:33:02.483Z,102274.16
2023-05-25T20:35:48.527Z,102272.53
2023-05-25T20:38:36.212Z,102276.50
2023-05-25T20:41:22.764Z,102276.16
2023-05-25T20:44:08.977Z,102276.34
2023-05-25T20:46:55.483Z,102284.44
2023-05-25T20:49:41.476Z,102284.66
2023-05-25T20:52:27.455Z,102288.56
2023-05-25T20:55:14.980Z,102288.28
2023-05-25T20:58:01.678Z,102290.31
2023-05-25T21:00:49.617Z,102290.03
2023-05-25T21:03:35.926Z,102289.72
2023-05-25T21:06:22.552Z,102287.69
2023-05-25T21:09:08.883Z,102288.72
2023-05-25T21:11:56.278Z,102293.63
2023-05-25T21:14:42.395Z,102291.78
2023-05-25T21:17:29.031Z,102288.44
2023-05-25T21:20:15.451Z,102292.47
2023-05-25T21:23:02.460Z,102290.44
2023-05-25T21:25:49.146Z,102285.41
2023-05-25T21:28:36.978Z,102303.47
2023-05-25T21:31:24.416Z,102304.16
2023-05-25T21:34:10.823Z,102313.56
2023-05-25T21:36:56.735Z,102311.91
2023-05-25T21:39:43.300Z,102311.06
2023-05-25T21:42:29.335Z,102317.78
2023-05-25T21:45:16.557Z,102310.72
2023-05-25T21:48:04.158Z,102322.19
2023-05-25T21:50:51.390Z,102320.16
2023-05-25T21:53:37.279Z,102320.16
2023-05-25T21:56:24.283Z,102325.03
2023-05-25T21:59:10.316Z,102331.59
2023-05-25T22:01:57.687Z,102326.22
2023-05-25T22:04:44.065Z,102327.56
2023-05-25T22:07:30.134Z,102332.59
2023-05-25T22:10:16.250Z,102332.47
2023-05-25T22:13:03.252Z,102334.75
2023-05-25T22:15:49.165Z,102338.25
2023-05-25T22:18:38.607Z,102339.25
2023-05-25T22:21:25.171Z,102339.53
2023-05-25T22:24:11.473Z,102336.84
2023-05-25T22:26:57.639Z,102336.97
2023-05-25T22:29:44.661Z,102334.94
2023-05-25T22:32:31.087Z,102337.63
2023-05-25T22:35:18.487Z,102335.25
2023-05-25T22:38:04.776Z,102335.41
2023-05-25T22:40:51.173Z,102329.66
2023-05-25T22:43:37.367Z,102344.28
2023-05-25T22:46:23.753Z,102342.59
2023-05-25T22:49:10.106Z,102351.66
2023-05-25T22:51:57.619Z,102344.78
2023-05-25T22:54:43.669Z,102344.78
2023-05-25T22:57:29.826Z,102345.59
2023-05-25T23:00:16.292Z,102347.19
2023-05-25T23:03:04.471Z,102343.00
2023-05-25T23:05:50.905Z,102329.88
2023-05-25T23:08:39.301Z,102328.81
2023-05-25T23:11:26.293Z,102338.69
2023-05-25T23:14:12.644Z,102339.66
2023-05-25T23:16:58.929Z,102339.97
2023-05-25T23:19:45.233Z,102343.50
2023-05-25T23:22:31.296Z,102332.69
2023-05-25T23:25:19.261Z,102333.00
2023-05-25T23:28:05.905Z,102331.97
2023-05-25T23:30:52.513Z,102326.91
2023-05-25T23:33:38.852Z,102331.34
2023-05-25T23:36:26.039Z,102326.13
2023-05-25T23:39:12.868Z,102328.47
2023-05-25T23:42:00.495Z,102330.47
2023-05-25T23:44:46.774Z,102340.53
2023-05-25T23:47:33.081Z,102332.75
2023-05-25T23:50:19.489Z,102345.50
2023-05-25T23:53:05.945Z,102342.97
2023-05-25T23:55:51.913Z,102344.44
2023-05-25T23:58:39.513Z,102345.13
